createdAt,value
2018-06-24T00:00:57.747Z,99744.61
2018-06-24T00:03:25.581Z,99745.77
2018-06-24T00:05:53.454Z,99745.25
2018-06-24T00:18:25.069Z,99746.05
2018-06-24T00:20:52.927Z,99741.75
2018-06-24T00:23:20.779Z,99749.77
2018-06-24T00:25:48.608Z,99746.31
2018-06-24T00:28:16.439Z,99747.50
2018-06-24T00:30:44.280Z,99745.47
2018-06-24T00:33:12.114Z,99742.56
2018-06-24T00:35:39.914Z,99740.76
2018-06-24T00:38:07.781Z,99740.78
2018-06-24T00:40:35.648Z,99740.59
2018-06-24T00:43:03.493Z,99738.08
2018-06-24T00:45:31.416Z,99732.33
2018-06-24T00:47:59.262Z,99738.17
2018-06-24T00:50:27.071Z,99741.11
2018-06-24T00:52:54.900Z,99740.59
2018-06-24T00:55:22.782Z,99742.27
2018-06-24T00:57:50.594Z,99741.67
2018-06-24T01:00:18.727Z,99745.86
2018-06-24T01:02:46.539Z,99745.72
2018-06-24T01:05:14.714Z,99740.59
2018-06-24T01:07:43.715Z,99742.23
2018-06-24T01:10:11.529Z,99743.28
2018-06-24T01:12:39.887Z,99744.18
2018-06-24T01:15:07.972Z,99742.91
2018-06-24T01:17:35.799Z,99749.19
2018-06-24T01:20:04.911Z,99746.80
2018-06-24T01:22:32.761Z,99743.41
2018-06-24T01:25:00.585Z,99745.02
2018-06-24T01:27:28.406Z,99746.70
2018-06-24T01:29:56.224Z,99743.98
2018-06-24T01:32:24.523Z,99750.25
2018-06-24T01:34:52.906Z,99745.17
2018-06-24T01:37:20.735Z,99749.98
2018-06-24T01:39:48.553Z,99753.90
2018-06-24T01:42:16.418Z,99748.58
2018-06-24T01:44:44.282Z,99750.86
2018-06-24T01:47:12.140Z,99754.72
2018-06-24T01:49:39.985Z,99753.58
2018-06-24T01:52:07.815Z,99756.37
2018-06-24T01:54:35.706Z,99765.70
2018-06-24T01:57:03.548Z,99759.77
2018-06-24T01:59:31.372Z,99768.91
2018-06-24T02:02:00.120Z,99770.08
2018-06-24T02:04:27.973Z,99772.66
2018-06-24T02:06:55.834Z,99776.94
2018-06-24T02:09:23.671Z,99774.20
2018-06-24T02:11:51.517Z,99772.83
2018-06-24T02:14:19.386Z,99780.92
2018-06-24T02:16:47.218Z,99785.04
2018-06-24T02:19:15.139Z,99782.22
2018-06-24T02:21:42.981Z,99787.89
2018-06-24T02:24:10.848Z,99787.14
2018-06-24T02:26:38.709Z,99785.92
2018-06-24T02:29:06.568Z,99785.66
2018-06-24T02:31:34.524Z,99782.06
2018-06-24T02:34:02.373Z,99783.33
2018-06-24T02:36:30.295Z,99782.52
2018-06-24T02:38:58.187Z,99785.70
2018-06-24T02:41:26.127Z,99785.58
2018-06-24T02:43:54.106Z,99784.11
2018-06-24T02:46:21.887Z,99789.30
2018-06-24T02:48:49.718Z,99788.08
2018-06-24T02:51:17.575Z,99785.70
2018-06-24T02:53:45.421Z,99789.42
2018-06-24T02:56:13.293Z,99780.82
2018-06-24T02:58:41.178Z,99777.41
2018-06-24T03:01:09.029Z,99760.85
2018-06-24T03:03:36.856Z,99757.59
2018-06-24T03:06:04.694Z,99751.84
2018-06-24T03:08:32.627Z,99742.54
2018-06-24T03:11:00.480Z,99742.53
2018-06-24T03:13:28.330Z,99746.33
2018-06-24T03:15:56.192Z,99747.60
2018-06-24T03:18:24.071Z,99746.25
2018-06-24T03:20:51.930Z,99741.25
2018-06-24T03:23:19.756Z,99733.48
2018-06-24T03:25:47.570Z,99738.83
2018-06-24T03:28:15.427Z,99733.44
2018-06-24T03:30:43.274Z,99727.16
2018-06-24T03:33:11.121Z,99725.33
2018-06-24T03:35:39.319Z,99723.69
2018-06-24T03:38:07.164Z,99721.14
2018-06-24T03:40:35.012Z,99714.45
2018-06-24T03:43:02.871Z,99723.52
2018-06-24T03:45:30.754Z,99718.75
2018-06-24T03:47:58.565Z,99714.91
2018-06-24T03:50:26.424Z,99730.30
2018-06-24T03:52:54.283Z,99735.55
2018-06-24T03:55:22.143Z,99732.03
2018-06-24T03:57:49.991Z,99730.17
2018-06-24T04:00:17.835Z,99738.30
2018-06-24T04:02:45.655Z,99735.83
2018-06-24T04:05:13.504Z,99746.95
2018-06-24T04:07:41.346Z,99739.42
2018-06-24T04:10:09.259Z,99732.33
2018-06-24T04:12:37.119Z,99733.06
2018-06-24T04:15:05.054Z,99723.80
2018-06-24T04:17:32.873Z,99731.66
2018-06-24T04:20:00.720Z,99726.73
2018-06-24T04:22:28.580Z,99717.48
2018-06-24T04:24:56.408Z,99731.47
2018-06-24T04:27:24.282Z,99745.39
2018-06-24T04:29:52.143Z,99754.09
2018-06-24T04:32:20.099Z,99756.81
2018-06-24T04:34:47.964Z,99766.34
2018-06-24T04:37:15.799Z,99763.48
2018-06-24T04:39:43.641Z,99772.55
2018-06-24T04:42:11.492Z,99770.73
2018-06-24T04:44:39.344Z,99767.88
2018-06-24T04:47:07.246Z,99757.53
2018-06-24T04:49:35.099Z,99733.34
2018-06-24T04:52:03.005Z,99741.41
2018-06-24T04:54:30.844Z,99718.00
2018-06-24T04:56:58.676Z,99711.38
2018-06-24T04:59:26.490Z,99717.38
2018-06-24T05:01:54.669Z,99715.98
2018-06-24T05:04:22.512Z,99717.77
2018-06-24T05:06:50.398Z,99713.63
2018-06-24T05:09:18.251Z,99726.13
2018-06-24T05:11:46.139Z,99749.28
2018-06-24T05:14:13.985Z,99739.59
2018-06-24T05:16:41.835Z,99721.48
2018-06-24T05:19:09.782Z,99725.85
2018-06-24T05:21:37.637Z,99747.38
2018-06-24T05:24:05.485Z,99742.91
2018-06-24T05:26:33.396Z,99750.73
2018-06-24T05:29:01.272Z,99755.36
2018-06-24T05:31:29.184Z,99749.77
2018-06-24T05:33:57.046Z,99753.53
2018-06-24T05:36:24.909Z,99745.11
2018-06-24T05:38:52.739Z,99751.51
2018-06-24T05:41:20.603Z,99750.33
2018-06-24T05:43:48.533Z,99742.81
2018-06-24T05:46:16.374Z,99737.61
2018-06-24T05:48:44.279Z,99735.73
2018-06-24T05:51:12.152Z,99742.13
2018-06-24T05:53:39.996Z,99746.89
2018-06-24T05:56:07.837Z,99750.66
2018-06-24T05:58:35.674Z,99759.33
2018-06-24T06:01:03.532Z,99749.03
2018-06-24T06:03:31.411Z,99731.66
2018-06-24T06:05:59.266Z,99725.76
2018-06-24T06:08:27.170Z,99723.66
2018-06-24T06:10:55.061Z,99725.30
2018-06-24T06:13:22.932Z,99718.13
2018-06-24T06:15:50.754Z,99718.36
2018-06-24T06:18:18.572Z,99714.01
2018-06-24T06:20:46.419Z,99721.47
2018-06-24T06:23:14.286Z,99731.31
2018-06-24T06:25:42.178Z,99724.93
2018-06-24T06:28:10.032Z,99725.20
2018-06-24T06:30:37.940Z,99719.56
2018-06-24T06:33:05.925Z,99719.36
2018-06-24T06:35:33.770Z,99718.44
2018-06-24T06:38:01.682Z,99726.27
2018-06-24T06:40:29.526Z,99726.48
2018-06-24T06:42:57.413Z,99714.95
2018-06-24T06:45:25.335Z,99714.72
2018-06-24T06:47:53.154Z,99706.88
2018-06-24T06:50:20.997Z,99711.81
2018-06-24T06:52:48.851Z,99709.09
2018-06-24T06:55:16.754Z,99711.27
2018-06-24T06:57:44.623Z,99707.84
2018-06-24T07:00:12.492Z,99704.09
2018-06-24T07:02:40.350Z,99706.48
2018-06-24T07:05:08.208Z,99717.03
2018-06-24T07:07:36.095Z,99712.17
2018-06-24T07:10:03.986Z,99704.47
2018-06-24T07:12:31.819Z,99714.62
2018-06-24T07:14:59.643Z,99713.17
2018-06-24T07:17:27.477Z,99721.05
2018-06-24T07:19:55.390Z,99727.95
2018-06-24T07:22:23.195Z,99723.59
2018-06-24T07:24:50.998Z,99718.72
2018-06-24T07:27:18.820Z,99722.18
2018-06-24T07:29:46.639Z,99718.75
2018-06-24T07:32:14.519Z,99718.94
2018-06-24T07:34:42.327Z,99708.61
2018-06-24T07:37:10.215Z,99713.86
2018-06-24T07:39:38.037Z,99714.25
2018-06-24T07:42:05.906Z,99722.30
2018-06-24T07:44:33.799Z,99711.52
2018-06-24T07:47:01.655Z,99729.67
2018-06-24T07:49:29.477Z,99727.19
2018-06-24T07:51:57.339Z,99730.81
2018-06-24T07:54:25.275Z,99725.49
2018-06-24T07:56:53.151Z,99728.03
2018-06-24T07:59:20.993Z,99719.81
2018-06-24T08:01:48.882Z,99714.20
2018-06-24T08:04:16.749Z,99718.19
2018-06-24T08:06:44.545Z,99715.60
2018-06-24T08:09:12.886Z,99723.77
2018-06-24T08:11:41.407Z,99725.53
2018-06-24T08:14:09.497Z,99712.97
2018-06-24T08:16:37.684Z,99718.44
2018-06-24T08:19:05.743Z,99718.30
2018-06-24T08:21:33.567Z,99730.77
2018-06-24T08:24:01.435Z,99730.87
2018-06-24T08:26:29.356Z,99732.00
2018-06-24T08:28:57.186Z,99715.34
2018-06-24T08:31:25.114Z,99720.24
2018-06-24T08:33:52.941Z,99717.20
2018-06-24T08:36:20.809Z,99720.66
2018-06-24T08:38:48.790Z,99727.95
2018-06-24T08:41:16.607Z,99720.75
2018-06-24T08:43:44.448Z,99718.39
2018-06-24T08:46:12.274Z,99721.13
2018-06-24T08:48:40.112Z,99727.77
2018-06-24T08:51:07.950Z,99729.74
2018-06-24T08:53:35.783Z,99725.30
2018-06-24T08:56:03.942Z,99728.55
2018-06-24T08:58:31.793Z,99727.34
2018-06-24T09:00:59.625Z,99732.89
2018-06-24T09:03:27.449Z,99732.52
2018-06-24T09:05:55.333Z,99730.77
2018-06-24T09:08:23.214Z,99729.83
2018-06-24T09:10:51.034Z,99727.05
2018-06-24T09:13:18.880Z,99729.92
2018-06-24T09:15:46.744Z,99739.16
2018-06-24T09:18:14.614Z,99747.70
2018-06-24T09:20:42.419Z,99742.81
2018-06-24T09:23:10.275Z,99734.74
2018-06-24T09:25:38.134Z,99738.60
2018-06-24T09:28:06.157Z,99742.17
2018-06-24T09:30:34.003Z,99729.34
2018-06-24T09:33:01.868Z,99742.77
2018-06-24T09:35:29.702Z,99742.23
2018-06-24T09:37:57.533Z,99733.42
2018-06-24T09:40:25.374Z,99732.13
2018-06-24T09:42:53.282Z,99726.16
2018-06-24T09:45:21.219Z,99721.77
2018-06-24T09:47:49.046Z,99722.44
2018-06-24T09:50:16.891Z,99726.26
2018-06-24T09:52:44.796Z,99732.09
2018-06-24T09:55:12.649Z,99740.16
2018-06-24T09:57:40.486Z,99733.09
2018-06-24T10:00:12.801Z,99726.53
2018-06-24T10:02:40.713Z,99721.25
2018-06-24T10:05:08.531Z,99719.05
2018-06-24T10:07:36.368Z,99711.18
2018-06-24T10:10:04.194Z,99708.69
2018-06-24T10:12:32.062Z,99704.29
2018-06-24T10:14:59.948Z,99705.61
2018-06-24T10:17:27.907Z,99708.14
2018-06-24T10:19:55.714Z,99707.78
2018-06-24T10:22:23.544Z,99704.56
2018-06-24T10:24:51.367Z,99707.78
2018-06-24T10:27:19.229Z,99709.23
2018-06-24T10:29:47.043Z,99706.78
2018-06-24T10:32:14.906Z,99691.95
2018-06-24T10:34:42.745Z,99697.70
2018-06-24T10:37:10.613Z,99699.66
2018-06-24T10:39:38.431Z,99696.95
2018-06-24T10:42:06.255Z,99706.92
2018-06-24T10:44:34.114Z,99698.45
2018-06-24T10:47:01.926Z,99700.91
2018-06-24T10:49:29.762Z,99698.06
2018-06-24T10:51:57.639Z,99695.63
2018-06-24T10:54:25.426Z,99695.17
2018-06-24T10:56:53.314Z,99695.00
2018-06-24T10:59:21.135Z,99699.22
2018-06-24T11:01:49.319Z,99693.88
2018-06-24T11:04:17.199Z,99691.70
2018-06-24T11:06:45.104Z,99688.49
2018-06-24T11:09:12.975Z,99682.82
2018-06-24T11:11:40.815Z,99691.66
2018-06-24T11:14:08.657Z,99686.95
2018-06-24T11:16:36.537Z,99683.17
2018-06-24T11:19:04.388Z,99683.27
2018-06-24T11:21:32.249Z,99680.31
2018-06-24T11:24:00.145Z,99675.13
2018-06-24T11:26:28.186Z,99679.59
2018-06-24T11:28:56.002Z,99678.91
2018-06-24T11:31:23.813Z,99673.86
2018-06-24T11:33:51.656Z,99667.59
2018-06-24T11:36:19.538Z,99670.75
2018-06-24T11:38:47.403Z,99665.75
2018-06-24T11:41:15.241Z,99662.89
2018-06-24T11:43:43.066Z,99663.94
2018-06-24T11:46:10.913Z,99664.58
2018-06-24T11:48:38.755Z,99665.28
2018-06-24T11:51:06.631Z,99657.86
2018-06-24T11:53:34.488Z,99662.22
2018-06-24T11:56:02.335Z,99666.66
2018-06-24T11:58:30.274Z,99662.48
2018-06-24T12:00:58.086Z,99665.34
2018-06-24T12:03:26.093Z,99663.38
2018-06-24T12:05:54.000Z,99664.23
2018-06-24T12:08:21.890Z,99655.05
2018-06-24T12:10:50.149Z,99651.83
2018-06-24T12:13:18.055Z,99654.60
2018-06-24T12:15:45.949Z,99653.91
2018-06-24T12:18:13.850Z,99649.15
2018-06-24T12:20:41.899Z,99643.25
2018-06-24T12:23:09.830Z,99636.51
2018-06-24T12:25:37.733Z,99635.09
2018-06-24T12:28:05.634Z,99641.20
2018-06-24T12:30:33.486Z,99642.70
2018-06-24T12:33:01.338Z,99643.64
2018-06-24T12:35:29.178Z,99646.66
2018-06-24T12:37:57.052Z,99648.16
2018-06-24T12:40:31.330Z,99639.55
2018-06-24T12:43:00.383Z,99644.48
2018-06-24T12:45:29.568Z,99642.04
2018-06-24T12:47:57.663Z,99630.86
2018-06-24T12:50:25.657Z,99639.84
2018-06-24T12:52:53.626Z,99630.64
2018-06-24T12:55:22.529Z,99634.91
2018-06-24T12:57:50.364Z,99632.05
2018-06-24T13:00:18.630Z,99630.80
2018-06-24T13:02:46.074Z,99620.30
2018-06-24T13:05:13.903Z,99621.81
2018-06-24T13:07:42.055Z,99628.64
2018-06-24T13:10:09.930Z,99627.62
2018-06-24T13:12:37.792Z,99632.35
2018-06-24T13:15:06.343Z,99628.30
2018-06-24T13:17:34.243Z,99624.20
2018-06-24T13:20:03.791Z,99627.06
2018-06-24T13:22:31.693Z,99617.00
2018-06-24T13:24:59.552Z,99619.78
2018-06-24T13:27:27.391Z,99614.81
2018-06-24T13:29:55.233Z,99614.17
2018-06-24T13:32:24.113Z,99609.89
2018-06-24T13:34:51.987Z,99608.92
2018-06-24T13:37:20.176Z,99605.22
2018-06-24T13:39:48.169Z,99607.81
2018-06-24T13:42:16.366Z,99609.30
2018-06-24T13:44:44.688Z,99606.39
2018-06-24T13:47:13.290Z,99613.23
2018-06-24T13:49:42.206Z,99613.98
2018-06-24T13:52:10.689Z,99614.05
2018-06-24T13:54:38.490Z,99607.16
2018-06-24T13:57:06.319Z,99612.80
2018-06-24T13:59:34.178Z,99606.03
2018-06-24T14:02:02.017Z,99603.70
2018-06-24T14:04:29.846Z,99602.08
2018-06-24T14:06:57.680Z,99607.21
2018-06-24T14:09:25.575Z,99601.08
2018-06-24T14:11:53.435Z,99598.33
2018-06-24T14:14:21.332Z,99599.44
2018-06-24T14:16:49.162Z,99609.41
2018-06-24T14:19:16.994Z,99608.34
2018-06-24T14:21:44.818Z,99602.61
2018-06-24T14:24:12.682Z,99595.29
2018-06-24T14:26:40.546Z,99593.38
2018-06-24T14:29:08.437Z,99591.75
2018-06-24T14:31:36.288Z,99597.77
2018-06-24T14:34:04.300Z,99595.86
2018-06-24T14:36:32.215Z,99591.70
2018-06-24T14:38:59.997Z,99586.31
2018-06-24T14:41:27.833Z,99588.30
2018-06-24T14:43:55.679Z,99579.86
2018-06-24T14:46:23.512Z,99582.95
2018-06-24T14:48:51.340Z,99594.08
2018-06-24T14:51:19.192Z,99592.22
2018-06-24T14:53:47.029Z,99583.61
2018-06-24T14:56:15.065Z,99583.05
2018-06-24T14:58:42.941Z,99581.13
2018-06-24T15:01:10.814Z,99578.48
2018-06-24T15:03:38.662Z,99583.61
2018-06-24T15:06:06.515Z,99589.02
2018-06-24T15:08:34.360Z,99583.80
2018-06-24T15:11:02.296Z,99582.88
2018-06-24T15:13:30.198Z,99587.17
2018-06-24T15:15:58.025Z,99587.45
2018-06-24T15:18:25.931Z,99580.64
2018-06-24T15:20:53.962Z,99580.76
2018-06-24T15:23:22.075Z,99578.96
2018-06-24T15:25:50.070Z,99580.45
2018-06-24T15:28:17.901Z,99578.66
2018-06-24T15:30:45.910Z,99583.34
2018-06-24T15:33:14.077Z,99578.55
2018-06-24T15:35:42.011Z,99577.11
2018-06-24T15:38:09.831Z,99577.17
2018-06-24T15:40:37.712Z,99573.25
2018-06-24T15:43:05.557Z,99566.25
2018-06-24T15:45:33.412Z,99569.08
2018-06-24T15:48:01.327Z,99571.42
2018-06-24T15:50:29.197Z,99574.13
2018-06-24T15:52:57.049Z,99576.61
2018-06-24T15:55:24.869Z,99571.16
2018-06-24T15:57:52.700Z,99572.95
2018-06-24T16:00:20.553Z,99576.27
2018-06-24T16:02:48.367Z,99573.20
2018-06-24T16:05:16.289Z,99584.91
2018-06-24T16:07:44.170Z,99593.64
2018-06-24T16:10:12.101Z,99590.10
2018-06-24T16:12:39.977Z,99593.06
2018-06-24T16:15:08.348Z,99600.09
2018-06-24T16:17:36.728Z,99597.11
2018-06-24T16:20:04.752Z,99599.36
2018-06-24T16:22:34.192Z,99602.80
2018-06-24T16:25:03.164Z,99598.49
2018-06-24T16:27:31.689Z,99599.48
2018-06-24T16:30:01.259Z,99598.30
2018-06-24T16:32:31.040Z,99592.92
2018-06-24T16:35:00.394Z,99593.98
2018-06-24T16:37:28.259Z,99592.83
2018-06-24T16:39:56.197Z,99594.27
2018-06-24T16:42:24.063Z,99597.88
2018-06-24T16:44:51.927Z,99599.55
2018-06-24T16:47:20.520Z,99606.52
2018-06-24T16:49:48.397Z,99602.11
2018-06-24T16:52:16.480Z,99604.83
2018-06-24T16:54:44.310Z,99614.19
2018-06-24T16:57:12.150Z,99609.23
2018-06-24T16:59:40.011Z,99607.03
2018-06-24T17:02:07.843Z,99610.88
2018-06-24T17:04:35.719Z,99616.90
2018-06-24T17:07:03.553Z,99613.31
2018-06-24T17:09:31.389Z,99616.09
2018-06-24T17:11:59.242Z,99612.50
2018-06-24T17:14:27.063Z,99611.06
2018-06-24T17:16:54.908Z,99615.71
2018-06-24T17:19:22.728Z,99608.86
2018-06-24T17:21:50.555Z,99613.17
2018-06-24T17:24:18.439Z,99617.53
2018-06-24T17:26:46.248Z,99616.50
2018-06-24T17:29:14.058Z,99619.23
2018-06-24T17:31:41.930Z,99616.70
2018-06-24T17:34:09.781Z,99612.07
2018-06-24T17:36:37.936Z,99613.00
2018-06-24T17:39:08.785Z,99616.30
2018-06-24T17:41:36.619Z,99618.70
2018-06-24T17:44:04.492Z,99625.70
2018-06-24T17:46:32.337Z,99627.52
2018-06-24T17:49:00.233Z,99625.61
2018-06-24T17:51:28.075Z,99624.95
2018-06-24T17:53:55.878Z,99629.65
2018-06-24T17:56:23.766Z,99631.91
2018-06-24T17:58:51.628Z,99630.88
2018-06-24T18:01:19.494Z,99629.05
2018-06-24T18:03:47.330Z,99633.45
2018-06-24T18:06:15.211Z,99634.89
2018-06-24T18:08:43.067Z,99629.50
2018-06-24T18:11:10.936Z,99634.38
2018-06-24T18:13:38.836Z,99637.06
2018-06-24T18:16:06.715Z,99636.41
2018-06-24T18:18:34.742Z,99632.34
2018-06-24T18:21:02.592Z,99638.13
2018-06-24T18:23:30.427Z,99639.73
2018-06-24T18:25:58.278Z,99645.73
2018-06-24T18:28:26.139Z,99640.77
2018-06-24T18:30:53.970Z,99642.06
2018-06-24T18:33:21.839Z,99641.08
2018-06-24T18:35:49.660Z,99640.03
2018-06-24T18:38:17.508Z,99650.96
2018-06-24T18:40:45.348Z,99646.82
2018-06-24T18:43:13.184Z,99647.92
2018-06-24T18:45:41.021Z,99647.69
2018-06-24T18:48:08.866Z,99651.00
2018-06-24T18:50:36.698Z,99653.47
2018-06-24T18:53:04.557Z,99654.67
2018-06-24T18:55:32.430Z,99659.64
2018-06-24T18:58:00.658Z,99660.05
2018-06-24T19:00:28.527Z,99664.61
2018-06-24T19:02:56.441Z,99664.34
2018-06-24T19:05:24.279Z,99665.75
2018-06-24T19:07:52.173Z,99663.98
2018-06-24T19:10:20.052Z,99666.89
2018-06-24T19:12:47.907Z,99667.70
2018-06-24T19:15:15.776Z,99665.45
2018-06-24T19:17:43.604Z,99671.61
2018-06-24T19:20:11.458Z,99670.84
2018-06-24T19:22:39.318Z,99672.47
2018-06-24T19:25:07.191Z,99670.64
2018-06-24T19:27:35.087Z,99677.87
2018-06-24T19:30:02.963Z,99680.74
2018-06-24T19:32:30.831Z,99681.64
2018-06-24T19:34:58.683Z,99683.64
2018-06-24T19:37:26.535Z,99683.91
2018-06-24T19:39:54.388Z,99678.36
2018-06-24T19:42:24.297Z,99682.89
2018-06-24T19:44:52.571Z,99678.44
2018-06-24T19:47:20.463Z,99680.77
2018-06-24T19:49:48.300Z,99681.75
2018-06-24T19:52:16.687Z,99679.80
2018-06-24T19:54:45.070Z,99677.03
2018-06-24T19:57:13.388Z,99676.50
2018-06-24T19:59:42.089Z,99675.36
2018-06-24T20:02:10.583Z,99675.41
2018-06-24T20:04:38.487Z,99683.14
2018-06-24T20:07:06.376Z,99678.97
2018-06-24T20:09:34.220Z,99677.88
2018-06-24T20:12:02.140Z,99678.86
2018-06-24T20:14:30.003Z,99675.69
2018-06-24T20:16:57.888Z,99679.78
2018-06-24T20:19:25.736Z,99676.66
2018-06-24T20:21:53.643Z,99677.72
2018-06-24T20:24:21.555Z,99681.16
2018-06-24T20:26:49.428Z,99680.19
2018-06-24T20:29:17.261Z,99679.16
2018-06-24T20:31:45.127Z,99681.38
2018-06-24T20:34:13.875Z,99681.20
2018-06-24T20:36:41.740Z,99683.06
2018-06-24T20:39:09.692Z,99687.47
2018-06-24T20:41:37.652Z,99680.19
2018-06-24T20:44:05.598Z,99681.02
2018-06-24T20:46:34.006Z,99683.48
2018-06-24T20:49:01.838Z,99686.94
2018-06-24T20:51:29.740Z,99678.24
2018-06-24T20:53:57.578Z,99676.98
2018-06-24T20:56:25.432Z,99681.14
2018-06-24T20:58:53.279Z,99679.78
2018-06-24T21:01:21.148Z,99676.43
2018-06-24T21:03:50.348Z,99678.98
2018-06-24T21:06:19.318Z,99676.86
2018-06-24T21:08:47.154Z,99676.07
2018-06-24T21:11:16.681Z,99674.20
2018-06-24T21:13:50.439Z,99674.59
2018-06-24T21:16:21.848Z,99675.03
2018-06-24T21:18:49.856Z,99670.64
2018-06-24T21:21:17.867Z,99675.25
2018-06-24T21:23:46.195Z,99674.47
2018-06-24T21:26:14.126Z,99672.87
2018-06-24T21:28:42.087Z,99660.84
2018-06-24T21:31:09.939Z,99663.89
2018-06-24T21:33:37.826Z,99667.93
2018-06-24T21:36:05.668Z,99670.30
2018-06-24T21:38:33.559Z,99666.77
2018-06-24T21:41:01.445Z,99669.94
2018-06-24T21:43:29.381Z,99670.31
2018-06-24T21:45:57.165Z,99672.78
2018-06-24T21:48:25.038Z,99674.45
2018-06-24T21:50:52.862Z,99676.50
2018-06-24T21:53:20.750Z,99678.19
2018-06-24T21:55:48.604Z,99674.55
2018-06-24T21:58:16.441Z,99672.45
2018-06-24T22:00:44.274Z,99673.61
2018-06-24T22:03:12.166Z,99678.75
2018-06-24T22:05:40.028Z,99674.12
2018-06-24T22:08:07.867Z,99680.91
2018-06-24T22:10:35.704Z,99678.66
2018-06-24T22:13:03.597Z,99683.05
2018-06-24T22:15:31.447Z,99684.49
2018-06-24T22:17:59.315Z,99676.75
2018-06-24T22:20:27.172Z,99682.16
2018-06-24T22:22:54.999Z,99681.95
2018-06-24T22:25:22.826Z,99682.41
2018-06-24T22:27:50.642Z,99685.05
2018-06-24T22:30:18.466Z,99679.53
2018-06-24T22:32:46.368Z,99682.07
2018-06-24T22:35:14.219Z,99687.98
2018-06-24T22:37:42.073Z,99689.77
2018-06-24T22:40:09.924Z,99685.55
2018-06-24T22:42:37.755Z,99683.72
2018-06-24T22:45:05.619Z,99686.73
2018-06-24T22:47:33.463Z,99679.27
2018-06-24T22:50:01.320Z,99679.91
2018-06-24T22:52:29.164Z,99676.09
2018-06-24T22:54:57.049Z,99671.10
2018-06-24T22:57:24.930Z,99672.65
2018-06-24T23:00:24.546Z,99666.67
2018-06-24T23:02:52.303Z,99660.84
2018-06-24T23:05:20.013Z,99669.89
2018-06-24T23:07:47.871Z,99663.48
2018-06-24T23:10:15.697Z,99664.78
2018-06-24T23:12:43.647Z,99656.08
2018-06-24T23:15:11.942Z,99659.20
2018-06-24T23:17:40.167Z,99653.75
2018-06-24T23:20:08.818Z,99648.30
2018-06-24T23:22:36.893Z,99646.69
2018-06-24T23:25:05.019Z,99643.37
2018-06-24T23:27:32.858Z,99643.37
2018-06-24T23:30:00.798Z,99647.40
2018-06-24T23:32:28.650Z,99647.80
2018-06-24T23:34:56.518Z,99655.12
2018-06-24T23:37:24.360Z,99647.77
2018-06-24T23:39:52.227Z,99643.70
2018-06-24T23:42:20.116Z,99645.38
2018-06-24T23:44:47.952Z,99653.50
2018-06-24T23:47:15.798Z,99651.82
2018-06-24T23:49:43.663Z,99651.86
2018-06-24T23:52:11.537Z,99657.72
2018-06-24T23:54:39.380Z,99653.91
2018-06-24T23:57:07.214Z,99652.91
2018-06-24T23:59:35.061Z,99653.53
